Time;durP1;ratioP1;P1;durP2;ratioP2;P2;SDS_P1;SDS_P2;PMS_P1;PMS_P2;Temp;Humidity;BMP_temperature;BMP_pressure;BME280_temperature;BME280_humidity;BME280_pressure;Samples;Min_cycle;Max_cycle;Signal;HPM_P1;HPM_P2
2023/08/15 00:01:37;;;;;;;1.55;0.93;;;;;;;;;;5031776;28;20042;-71
2023/08/15 00:04:04;;;;;;;1.23;0.70;;;;;;;;;;5032265;28;20415;-71
2023/08/15 00:06:31;;;;;;;1.65;0.60;;;;;;;;;;5014378;28;20053;-71
2023/08/15 00:08:59;;;;;;;2.45;0.98;;;26.50;73.40;;;;;;5031893;28;20503;-72
2023/08/15 00:11:26;;;;;;;1.17;0.80;;;;;;;;;;5032149;28;20025;-72
2023/08/15 00:13:55;;;;;;;1.13;0.57;;;;;;;;;;5031733;28;20049;-71
2023/08/15 00:16:22;;;;;;;2.28;1.05;;;;;;;;;;5032057;28;20112;-71
2023/08/15 00:18:48;;;;;;;1.85;0.88;;;;;;;;;;5031967;28;20040;-73
2023/08/15 00:21:14;;;;;;;1.40;0.70;;;;;;;;;;5031670;28;20033;-72
2023/08/15 00:23:40;;;;;;;1.40;0.68;;;;;;;;;;5031603;28;20081;-71
2023/08/15 00:26:07;;;;;;;1.30;0.80;;;;;;;;;;5031882;28;20111;-71
2023/08/15 00:28:33;;;;;;;0.70;0.63;;;;;;;;;;5032033;28;20503;-72
2023/08/15 00:30:59;;;;;;;1.38;0.82;;;;;;;;;;5031836;28;20095;-71
2023/08/15 00:33:26;;;;;;;1.42;0.70;;;;;;;;;;5031749;28;20045;-71
2023/08/15 00:35:52;;;;;;;0.80;0.65;;;;;;;;;;5031738;28;20107;-71
2023/08/15 00:38:19;;;;;;;0.95;0.73;;;;;;;;;;5031758;28;20083;-73
2023/08/15 00:40:45;;;;;;;1.92;0.88;;;;;;;;;;5031761;28;20034;-75
2023/08/15 00:43:12;;;;;;;1.33;0.70;;;;;;;;;;5031705;28;20049;-74
2023/08/15 00:45:41;;;;;;;1.92;0.88;;;26.30;73.40;;;;;;5031363;28;20411;-75
2023/08/15 00:48:07;;;;;;;1.50;0.70;;;;;;;;;;5031657;28;20030;-76
2023/08/15 00:50:34;;;;;;;2.00;0.95;;;;;;;;;;5031543;28;20121;-75
2023/08/15 00:53:01;;;;;;;1.95;0.85;;;26.30;72.50;;;;;;5031157;28;20531;-75
2023/08/15 00:55:28;;;;;;;2.35;0.95;;;;;;;;;;5034421;28;20395;-74
2023/08/15 00:57:54;;;;;;;2.05;0.80;;;;;;;;;;5035828;28;20112;-72
2023/08/15 01:00:21;;;;;;;1.58;0.68;;;;;;;;;;5035589;28;20083;-72
2023/08/15 01:02:48;;;;;;;1.95;0.80;;;;;;;;;;5035179;28;20530;-72
2023/08/15 01:05:17;;;;;;;1.77;0.77;;;26.30;71.50;;;;;;5035369;28;20476;-72
2023/08/15 01:07:44;;;;;;;1.83;0.85;;;26.30;70.40;;;;;;5035465;28;20041;-72
2023/08/15 01:10:11;;;;;;;1.75;0.60;;;;;;;;;;5035551;28;20032;-71
2023/08/15 01:12:37;;;;;;;1.88;0.75;;;;;;;;;;5035199;28;20389;-71
2023/08/15 01:15:08;;;;;;;2.10;0.80;;;26.20;71.80;;;;;;5035275;28;20112;-71
2023/08/15 01:17:46;;;;;;;2.03;0.90;;;26.20;71.80;;;;;;5035056;28;20044;-71
2023/08/15 01:20:17;;;;;;;1.20;0.60;;;26.20;71.90;;;;;;5035100;28;20037;-71
2023/08/15 01:22:47;;;;;;;1.17;0.65;;;26.20;72.10;;;;;;5035189;28;20108;-71
2023/08/15 01:25:14;;;;;;;2.45;0.65;;;;;;;;;;5035738;28;20480;-75
2023/08/15 01:27:41;;;;;;;1.40;0.50;;;;;;;;;;5034843;28;20550;-74
2023/08/15 01:30:07;;;;;;;2.47;0.80;;;;;;;;;;5034766;28;20038;-74
2023/08/15 01:32:34;;;;;;;1.02;0.70;;;;;;;;;;5034605;28;20562;-74
2023/08/15 01:35:09;;;;;;;1.85;0.68;;;26.10;72.40;;;;;;5034840;28;20049;-74
2023/08/15 01:37:37;;;;;;;1.55;1.10;;;26.00;72.70;;;;;;5034949;28;20396;-71
2023/08/15 01:40:07;;;;;;;0.98;0.57;;;26.10;72.50;;;;;;5034789;28;20032;-71
2023/08/15 01:42:35;;;;;;;2.55;0.80;;;26.10;72.50;;;;;;5034562;28;20116;-72
2023/08/15 01:45:03;;;;;;;2.60;0.90;;;26.10;72.70;;;;;;5034792;28;20068;-72
2023/08/15 01:47:32;;;;;;;1.98;0.63;;;26.00;72.60;;;;;;5034776;28;20388;-72
2023/08/15 01:49:58;;;;;;;2.97;0.80;;;;;;;;;;5034976;28;20049;-72
2023/08/15 01:52:25;;;;;;;2.58;0.93;;;;;;;;;;5034305;28;20107;-72
2023/08/15 01:54:51;;;;;;;3.42;0.70;;;;;;;;;;5035110;28;20033;-75
2023/08/15 01:57:18;;;;;;;1.10;0.80;;;;;;;;;;5034627;28;20072;-75
2023/08/15 01:59:44;;;;;;;1.42;0.68;;;;;;;;;;5034475;28;20388;-74
2023/08/15 02:02:11;;;;;;;1.58;0.50;;;26.70;69.00;;;;;;5034161;28;20172;-75
2023/08/15 02:04:37;;;;;;;1.65;0.60;;;;;;;;;;5034355;28;20052;-74
2023/08/15 02:07:04;;;;;;;1.80;0.68;;;;;;;;;;5032765;28;20117;-73
2023/08/15 02:09:31;;;;;;;1.05;0.57;;;;;;;;;;5034039;28;20415;-75
2023/08/15 02:11:57;;;;;;;3.35;0.77;;;;;;;;;;5034180;28;20048;-75
2023/08/15 02:14:24;;;;;;;1.45;0.60;;;;;;;;;;5034002;28;20480;-74
2023/08/15 02:16:50;;;;;;;2.15;0.75;;;;;;;;;;5033921;28;20037;-74
2023/08/15 02:19:16;;;;;;;1.55;0.50;;;;;;;;;;5033864;28;20046;-74
2023/08/15 02:21:43;;;;;;;0.80;0.68;;;;;;;;;;5034370;28;20595;-74
2023/08/15 02:24:09;;;;;;;1.77;0.68;;;;;;;;;;5034085;28;20041;-74
2023/08/15 02:26:36;;;;;;;1.70;0.77;;;;;;;;;;5034102;28;20040;-74
2023/08/15 02:29:03;;;;;;;1.13;0.50;;;;;;;;;;5033647;28;20112;-74
2023/08/15 02:31:30;;;;;;;2.97;0.80;;;25.90;70.50;;;;;;5033732;28;20041;-74
2023/08/15 02:33:57;;;;;;;2.28;0.70;;;;;;;;;;5033842;28;20101;-71
2023/08/15 02:36:23;;;;;;;2.90;0.75;;;;;;;;;;5033947;28;20498;-71
2023/08/15 02:38:50;;;;;;;2.35;1.13;;;;;;;;;;5033853;28;20037;-71
2023/08/15 02:41:16;;;;;;;0.98;0.60;;;;;;;;;;5033584;28;20497;-71
2023/08/15 02:43:42;;;;;;;1.48;0.52;;;;;;;;;;5033741;28;20042;-71
2023/08/15 02:46:09;;;;;;;1.55;0.80;;;;;;;;;;5033378;28;20068;-71
2023/08/15 02:48:35;;;;;;;2.72;0.90;;;;;;;;;;5033481;28;20048;-71
2023/08/15 02:51:02;;;;;;;3.15;1.00;;;;;;;;;;5034139;28;20037;-73
2023/08/15 02:53:28;;;;;;;1.65;0.60;;;;;;;;;;5033501;28;20459;-73
2023/08/15 02:55:55;;;;;;;1.48;0.65;;;;;;;;;;5033455;28;20172;-71
2023/08/15 02:58:21;;;;;;;1.58;0.50;;;;;;;;;;5033246;28;20034;-71
2023/08/15 03:00:47;;;;;;;3.05;0.70;;;;;;;;;;5033250;28;20109;-71
2023/08/15 03:03:13;;;;;;;1.40;0.50;;;;;;;;;;5032805;28;20075;-72
2023/08/15 03:05:39;;;;;;;1.63;0.75;;;;;;;;;;5033156;28;20040;-72
2023/08/15 03:08:06;;;;;;;0.85;0.55;;;;;;;;;;5032912;28;20038;-72
2023/08/15 03:10:35;;;;;;;2.75;0.90;;;;;;;;;;5032936;28;20061;-71
2023/08/15 03:13:01;;;;;;;1.25;0.73;;;;;;;;;;5032935;28;20407;-72
2023/08/15 03:15:27;;;;;;;2.05;0.70;;;;;;;;;;5032815;28;20033;-71
2023/08/15 03:17:54;;;;;;;2.67;1.15;;;;;;;;;;5032533;28;20042;-71
2023/08/15 03:20:21;;;;;;;1.48;0.57;;;;;;;;;;5033243;28;20476;-74
2023/08/15 03:22:47;;;;;;;1.45;0.60;;;;;;;;;;5032808;28;20037;-74
2023/08/15 03:25:12;;;;;;;0.80;0.47;;;;;;;;;;5032750;28;20539;-74
2023/08/15 03:27:38;;;;;;;1.77;0.70;;;;;;;;;;5032973;28;20033;-74
2023/08/15 03:30:05;;;;;;;1.92;0.60;;;;;;;;;;5032675;28;20065;-74
2023/08/15 03:32:31;;;;;;;1.52;0.45;;;;;;;;;;5032686;28;20155;-74
2023/08/15 03:34:57;;;;;;;1.58;0.45;;;;;;;;;;5032788;28;20038;-74
2023/08/15 03:37:24;;;;;;;1.27;0.73;;;;;;;;;;5032671;28;20112;-74
2023/08/15 03:39:50;;;;;;;1.58;0.47;;;;;;;;;;5032781;28;20396;-74
2023/08/15 03:42:17;;;;;;;1.00;0.80;;;;;;;;;;5032301;28;20073;-74
2023/08/15 03:44:43;;;;;;;1.50;0.60;;;;;;;;;;5032614;28;20152;-74
2023/08/15 03:47:09;;;;;;;1.25;0.70;;;;;;;;;;5032643;28;20037;-71
2023/08/15 03:49:37;;;;;;;1.75;0.88;;;;;;;;;;5032208;28;20472;-71
2023/08/15 03:52:04;;;;;;;2.95;0.70;;;;;;;;;;5032021;28;20038;-71
2023/08/15 03:54:30;;;;;;;1.65;0.73;;;;;;;;;;5032054;28;20042;-71
2023/08/15 03:56:57;;;;;;;2.38;0.85;;;;;;;;;;5032442;28;20053;-71
2023/08/15 03:59:23;;;;;;;2.08;0.75;;;;;;;;;;5032286;28;20119;-74
2023/08/15 04:01:50;;;;;;;1.83;0.70;;;;;;;;;;5031806;28;20037;-74
2023/08/15 04:04:16;;;;;;;1.63;0.50;;;;;;;;;;5032155;28;20415;-74
2023/08/15 04:06:43;;;;;;;1.48;0.77;;;;;;;;;;5031859;28;20025;-74
2023/08/15 04:09:09;;;;;;;2.78;0.80;;;;;;;;;;5031884;28;20488;-74
2023/08/15 04:11:36;;;;;;;2.42;0.80;;;;;;;;;;5032092;28;20365;-73
2023/08/15 04:14:02;;;;;;;2.15;0.73;;;;;;;;;;5031719;28;20049;-75
2023/08/15 04:16:29;;;;;;;1.90;0.47;;;;;;;;;;5032729;28;20033;-71
2023/08/15 04:18:55;;;;;;;1.05;0.63;;;;;;;;;;5031827;28;20487;-72
2023/08/15 04:21:22;;;;;;;1.30;0.70;;;;;;;;;;5031747;28;20547;-72
2023/08/15 04:23:48;;;;;;;3.10;0.98;;;;;;;;;;5031995;28;20120;-72
2023/08/15 04:26:15;;;;;;;2.40;0.90;;;25.40;70.30;;;;;;5032009;28;20356;-72
2023/08/15 04:28:41;;;;;;;2.30;0.88;;;;;;;;;;5031333;28;20403;-75
2023/08/15 04:31:07;;;;;;;1.42;0.80;;;;;;;;;;5031563;28;20504;-75
2023/08/15 04:33:34;;;;;;;1.98;1.30;;;;;;;;;;5031413;28;20056;-75
2023/08/15 04:36:00;;;;;;;3.85;1.50;;;;;;;;;;5031580;28;20112;-75
2023/08/15 04:38:26;;;;;;;2.50;2.03;;;;;;;;;;5031427;28;20040;-75
2023/08/15 04:40:52;;;;;;;3.00;2.65;;;;;;;;;;5031908;28;20547;-75
2023/08/15 04:43:18;;;;;;;4.93;4.55;;;;;;;;;;5031564;28;20041;-75
2023/08/15 04:45:44;;;;;;;6.60;5.45;;;;;;;;;;5031977;28;20022;-72
2023/08/15 04:48:11;;;;;;;7.88;7.15;;;;;;;;;;5031779;28;20030;-72
2023/08/15 04:50:37;;;;;;;10.20;9.35;;;;;;;;;;5031444;28;20033;-72
2023/08/15 04:53:03;;;;;;;13.25;12.13;;;;;;;;;;5031330;28;20045;-72
2023/08/15 04:55:29;;;;;;;15.60;14.30;;;;;;;;;;5031455;28;20034;-72
2023/08/15 04:57:55;;;;;;;19.40;17.65;;;;;;;;;;5031493;28;20487;-72
2023/08/15 05:00:21;;;;;;;22.52;20.52;;;;;;;;;;5031407;28;20045;-72
2023/08/15 05:02:47;;;;;;;26.08;23.60;;;;;;;;;;5031067;28;20058;-72
2023/08/15 05:05:14;;;;;;;28.38;25.70;;;;;;;;;;5031179;28;20033;-72
2023/08/15 05:07:40;;;;;;;32.58;29.73;;;;;;;;;;5031433;28;20107;-72
2023/08/15 05:10:08;;;;;;;36.63;33.33;;;;;;;;;;5031238;28;20060;-72
2023/08/15 05:12:34;;;;;;;38.28;34.80;;;;;;;;;;5031587;28;20053;-72
2023/08/15 05:15:01;;;;;;;39.05;35.40;;;;;;;;;;5031066;28;20538;-72
2023/08/15 05:17:28;;;;;;;41.53;37.78;;;;;;;;;;5031070;28;20049;-72
2023/08/15 05:19:55;;;;;;;42.80;38.92;;;;;;;;;;5031433;28;20451;-72
2023/08/15 05:22:21;;;;;;;42.22;38.22;;;;;;;;;;5031339;28;20087;-72
2023/08/15 05:24:47;;;;;;;42.67;38.70;;;;;;;;;;5031439;28;20038;-75
2023/08/15 05:27:14;;;;;;;42.33;38.38;;;25.10;71.40;;;;;;5031018;28;20037;-75
2023/08/15 05:29:41;;;;;;;42.78;38.78;;;;;;;;;;5031281;28;20153;-75
2023/08/15 05:32:07;;;;;;;43.17;38.97;;;;;;;;;;5031026;28;20125;-75
2023/08/15 05:34:34;;;;;;;41.72;37.60;;;;;;;;;;5030885;28;20048;-75
2023/08/15 05:37:00;;;;;;;42.83;38.90;;;;;;;;;;5031212;28;20353;-75
2023/08/15 05:39:27;;;;;;;42.28;38.08;;;;;;;;;;5031197;28;20121;-76
2023/08/15 05:41:53;;;;;;;39.75;35.85;;;;;;;;;;5034521;28;20041;-72
2023/08/15 05:44:20;;;;;;;37.58;33.85;;;;;;;;;;5034495;28;20128;-72
2023/08/15 05:46:46;;;;;;;37.28;33.55;;;;;;;;;;5034800;28;20072;-71
2023/08/15 05:49:12;;;;;;;36.70;33.10;;;;;;;;;;5034859;28;20037;-71
2023/08/15 05:51:39;;;;;;;36.83;33.08;;;;;;;;;;5034363;28;20527;-72
2023/08/15 05:54:06;;;;;;;33.20;29.90;;;;;;;;;;5034711;28;20042;-75
2023/08/15 05:56:32;;;;;;;33.35;29.98;;;;;;;;;;5034698;28;20037;-74
2023/08/15 05:58:59;;;;;;;33.50;30.10;;;;;;;;;;5034249;28;20038;-74
2023/08/15 06:01:25;;;;;;;30.33;27.15;;;;;;;;;;5034116;28;20037;-74
2023/08/15 06:03:52;;;;;;;29.15;26.05;;;;;;;;;;5034472;28;20436;-73
2023/08/15 06:06:18;;;;;;;29.33;26.33;;;;;;;;;;5034376;28;20025;-73
2023/08/15 06:08:44;;;;;;;26.50;23.80;;;;;;;;;;5034220;28;20512;-77
2023/08/15 06:11:10;;;;;;;26.33;23.40;;;;;;;;;;5034888;28;20400;-76
2023/08/15 06:13:37;;;;;;;24.40;22.00;;;;;;;;;;5034372;28;20067;-76
2023/08/15 06:16:03;;;;;;;22.80;20.50;;;;;;;;;;5034213;28;20041;-78
2023/08/15 06:18:29;;;;;;;23.88;21.48;;;;;;;;;;5034272;28;20095;-77
2023/08/15 06:20:56;;;;;;;22.90;20.27;;;;;;;;;;5034082;28;20041;-78
2023/08/15 06:23:21;;;;;;;20.20;17.85;;;;;;;;;;5034090;28;20044;-74
2023/08/15 06:25:48;;;;;;;20.38;17.33;;;;;;;;;;5034041;28;20034;-76
2023/08/15 06:28:17;;;;;;;17.00;15.30;;;;;;;;;;5033943;28;20044;-75
2023/08/15 06:30:43;;;;;;;17.63;15.38;;;;;;;;;;5034002;28;20060;-76
2023/08/15 06:33:09;;;;;;;15.27;13.63;;;;;;;;;;5033687;28;20107;-76
2023/08/15 06:35:36;;;;;;;14.43;12.95;;;;;;;;;;5033481;28;20040;-76
2023/08/15 06:38:02;;;;;;;14.20;12.73;;;;;;;;;;5034151;28;20061;-77
2023/08/15 06:40:29;;;;;;;12.52;11.32;;;;;;;;;;5033904;28;20034;-78
2023/08/15 06:42:55;;;;;;;12.35;11.23;;;;;;;;;;5033660;28;20043;-78
2023/08/15 06:45:23;;;;;;;12.55;10.57;;;;;;;;;;5033820;28;20029;-76
2023/08/15 06:47:50;;;;;;;11.80;9.50;;;;;;;;;;5033744;28;20042;-74
2023/08/15 06:50:16;;;;;;;9.88;7.85;;;;;;;;;;5033719;28;20041;-72
2023/08/15 06:52:42;;;;;;;8.63;7.03;;;;;;;;;;5032782;28;20044;-72
2023/08/15 06:55:09;;;;;;;10.68;7.05;;;;;;;;;;5033626;28;20451;-72
2023/08/15 06:57:35;;;;;;;7.68;5.50;;;;;;;;;;5033511;28;20399;-72
2023/08/15 07:00:06;;;;;;;7.15;5.40;;;25.00;74.40;;;;;;5033749;28;20084;-73
2023/08/15 07:02:33;;;;;;;6.28;4.68;;;;;;;;;;5032942;28;20566;-73
2023/08/15 07:04:59;;;;;;;4.80;3.72;;;;;;;;;;5033132;28;20041;-73
2023/08/15 07:07:26;;;;;;;8.65;3.53;;;;;;;;;;5033616;28;20068;-74
2023/08/15 07:09:52;;;;;;;4.88;3.33;;;;;;;;;;5033034;28;20042;-74
2023/08/15 07:12:19;;;;;;;5.70;2.88;;;;;;;;;;5033279;28;20121;-76
2023/08/15 07:14:46;;;;;;;5.18;2.78;;;;;;;;;;5033366;28;20048;-79
2023/08/15 07:17:12;;;;;;;5.68;2.80;;;;;;;;;;5033070;28;20045;-79
2023/08/15 07:19:39;;;;;;;3.53;2.17;;;;;;;;;;5033386;28;20026;-72
2023/08/15 07:22:05;;;;;;;6.32;2.28;;;;;;;;;;5033189;28;20038;-72
2023/08/15 07:24:32;;;;;;;4.97;1.90;;;;;;;;;;5033393;28;20079;-72
2023/08/15 07:26:59;;;;;;;3.88;2.03;;;;;;;;;;5033135;28;20048;-72
2023/08/15 07:29:25;;;;;;;3.22;1.77;;;;;;;;;;5033435;28;20038;-71
2023/08/15 07:31:52;;;;;;;6.28;1.92;;;;;;;;;;5032718;28;20044;-71
2023/08/15 07:34:18;;;;;;;4.80;1.27;;;;;;;;;;5032590;28;20492;-72
2023/08/15 07:36:45;;;;;;;3.35;1.40;;;;;;;;;;5032741;28;20096;-77
2023/08/15 07:39:11;;;;;;;3.15;1.45;;;;;;;;;;5032834;28;20080;-77
2023/08/15 07:41:37;;;;;;;4.85;1.25;;;;;;;;;;5032834;28;20034;-77
2023/08/15 07:44:04;;;;;;;5.20;1.38;;;;;;;;;;5032498;28;20045;-77
2023/08/15 07:46:31;;;;;;;6.90;1.70;;;;;;;;;;5033012;28;20096;-77
2023/08/15 07:48:57;;;;;;;4.43;1.52;;;;;;;;;;5032728;28;20423;-77
2023/08/15 07:51:24;;;;;;;4.90;1.60;;;;;;;;;;5032703;28;20041;-78
2023/08/15 07:53:50;;;;;;;3.83;1.50;;;;;;;;;;5033223;28;20053;-77
2023/08/15 07:56:17;;;;;;;3.40;1.38;;;;;;;;;;5032487;28;20037;-77
2023/08/15 07:58:44;;;;;;;4.63;1.23;;;;;;;;;;5032364;28;20034;-76
2023/08/15 08:01:10;;;;;;;3.80;1.45;;;;;;;;;;5032063;28;20046;-76
2023/08/15 08:03:39;;;;;;;3.63;1.20;;;;;;;;;;5032104;28;20046;-76
2023/08/15 08:06:05;;;;;;;4.07;1.40;;;;;;;;;;5032343;28;20119;-77
2023/08/15 08:08:32;;;;;;;4.20;0.90;;;;;;;;;;5032339;28;20037;-77
2023/08/15 08:10:59;;;;;;;5.13;1.77;;;;;;;;;;5032489;28;20045;-77
2023/08/15 08:13:25;;;;;;;3.67;1.30;;;;;;;;;;5032440;28;20400;-76
2023/08/15 08:15:51;;;;;;;2.83;1.20;;;;;;;;;;5032592;28;20111;-76
2023/08/15 08:18:18;;;;;;;4.43;1.40;;;;;;;;;;5032212;28;20072;-76
2023/08/15 08:20:45;;;;;;;3.10;1.13;;;;;;;;;;5032100;28;20034;-78
2023/08/15 08:23:13;;;;;;;5.35;1.50;;;;;;;;;;5032743;28;20045;-71
2023/08/15 08:25:39;;;;;;;2.40;1.35;;;;;;;;;;5032145;28;20044;-71
2023/08/15 08:28:06;;;;;;;4.53;1.42;;;;;;;;;;5032857;28;20038;-72
2023/08/15 08:30:33;;;;;;;3.28;1.45;;;;;;;;;;5032202;28;20041;-72
2023/08/15 08:32:59;;;;;;;3.80;1.45;;;;;;;;;;5032019;28;20045;-71
2023/08/15 08:35:26;;;;;;;4.22;1.52;;;;;;;;;;5032412;28;20423;-77
2023/08/15 08:37:52;;;;;;;2.95;1.00;;;;;;;;;;5031895;28;20063;-77
2023/08/15 08:40:19;;;;;;;2.75;0.88;;;;;;;;;;5032000;28;20048;-77
2023/08/15 08:42:46;;;;;;;5.53;1.40;;;;;;;;;;5032119;28;20037;-77
2023/08/15 08:45:13;;;;;;;3.95;1.30;;;;;;;;;;5031860;28;20037;-79
2023/08/15 08:47:40;;;;;;;4.95;1.52;;;25.50;76.90;;;;;;5031938;28;20371;-76
2023/08/15 08:50:10;;;;;;;5.45;1.50;;;25.50;71.20;;;;;;5032233;28;20065;-77
2023/08/15 08:52:48;;;;;;;3.55;1.27;;;25.40;71.10;;;;;;5031783;28;20513;-71
2023/08/15 08:55:15;;;;;;;3.05;1.33;;;;;;;;;;5031683;28;20060;-71
2023/08/15 08:57:47;;;;;;;3.20;1.33;;;25.50;76.70;;;;;;5031661;28;20045;-71
2023/08/15 09:00:14;;;;;;;4.13;1.48;;;25.40;75.70;;;;;;5031676;28;20041;-72
2023/08/15 09:02:41;;;;;;;1.60;0.90;;;;;;;;;;5031227;28;20053;-70
2023/08/15 09:05:09;;;;;;;4.50;1.10;;;;;;;;;;5031721;28;20033;-70
2023/08/15 09:07:36;;;;;;;3.35;1.38;;;25.50;76.00;;;;;;5031283;28;20030;-72
2023/08/15 09:10:04;;;;;;;1.58;0.73;;;;;;;;;;5032088;28;20060;-79
2023/08/15 09:12:35;;;;;;;4.55;1.23;;;25.50;76.50;;;;;;5031936;28;20055;-79
2023/08/15 09:15:04;;;;;;;4.72;1.40;;;25.50;76.70;;;;;;5032419;28;20022;-79
2023/08/15 09:17:31;;;;;;;4.88;1.33;;;;;;;;;;5036123;28;20025;-79
2023/08/15 09:20:08;;;;;;;5.70;1.35;;;25.40;76.60;;;;;;5036127;28;20075;-76
2023/08/15 09:22:39;;;;;;;7.72;1.58;;;25.50;74.60;;;;;;5035197;28;20480;-71
2023/08/15 09:25:05;;;;;;;3.58;0.98;;;;;;;;;;5035204;28;20033;-72
2023/08/15 09:27:32;;;;;;;3.17;1.05;;;;;;;;;;5035274;28;20060;-70
2023/08/15 09:30:19;;;;;;;2.83;1.10;;;25.80;75.20;;;;;;5035188;28;20064;-71
2023/08/15 09:32:46;;;;;;;2.78;1.13;;;25.40;72.20;;;;;;5034856;28;20045;-71
2023/08/15 09:35:14;;;;;;;2.58;0.95;;;25.50;75.00;;;;;;5035135;28;20037;-72
2023/08/15 09:37:42;;;;;;;3.20;1.00;;;;;;;;;;5035290;28;20034;-72
2023/08/15 09:40:22;;;;;;;1.58;1.10;;;25.50;75.10;;;;;;5034776;28;20049;-72
2023/08/15 09:42:49;;;;;;;1.80;1.10;;;;;;;;;;5035101;28;20507;-72
2023/08/15 09:45:16;;;;;;;3.70;1.08;;;;;;;;;;5035111;28;20392;-72
2023/08/15 09:47:43;;;;;;;3.15;1.25;;;25.50;74.30;;;;;;5034555;28;20109;-72
2023/08/15 09:50:12;;;;;;;2.90;0.98;;;25.50;75.20;;;;;;5034790;28;20030;-73
2023/08/15 09:52:40;;;;;;;2.92;0.85;;;25.50;75.20;;;;;;5034524;28;20037;-72
2023/08/15 09:55:14;;;;;;;3.67;1.38;;;25.50;69.50;;;;;;5034839;28;20030;-74
2023/08/15 09:57:44;;;;;;;4.05;1.27;;;25.50;69.60;;;;;;5034772;28;20113;-72
2023/08/15 10:00:16;;;;;;;;;;;25.50;75.70;;;;;;5035242;28;20053;-73
2023/08/15 10:02:45;;;;;;;4.45;1.42;;;25.50;75.40;;;;;;5034339;28;19936;-73
2023/08/15 10:05:13;;;;;;;4.45;1.20;;;25.50;72.30;;;;;;5034262;28;20080;-72
2023/08/15 10:07:41;;;;;;;4.65;1.55;;;25.50;75.20;;;;;;5034358;28;20033;-77
2023/08/15 10:10:08;;;;;;;5.68;1.50;;;25.60;73.90;;;;;;5016969;28;20587;-77
2023/08/15 10:12:37;;;;;;;3.60;1.27;;;25.60;75.40;;;;;;5034468;28;20070;-77
2023/08/15 10:15:03;;;;;;;5.25;1.23;;;;;;;;;;5034535;28;20087;-78
2023/08/15 10:17:30;;;;;;;3.78;1.30;;;;;;;;;;5034530;28;20076;-72
2023/08/15 10:20:02;;;;;;;3.05;0.98;;;25.60;69.00;;;;;;5033961;28;20037;-73
2023/08/15 10:22:30;;;;;;;3.38;1.30;;;25.70;74.80;;;;;;5034046;28;20091;-73
2023/08/15 10:25:20;;;;;;;3.80;1.00;;;25.80;74.60;;;;;;5033938;28;20040;-73
2023/08/15 10:27:47;;;;;;;;;;;25.80;74.80;;;;;;5033475;28;20103;-73
2023/08/15 10:30:30;;;;;;;3.20;1.13;;;25.90;74.50;;;;;;5033861;28;20423;-74
2023/08/15 10:33:01;;;;;;;3.78;1.45;;;25.80;68.60;;;;;;5033758;28;20065;-76
2023/08/15 10:35:28;;;;;;;3.42;1.23;;;;;;;;;;5034142;28;20064;-76
2023/08/15 10:37:57;;;;;;;5.20;1.60;;;25.80;68.90;;;;;;5033942;28;20041;-75
2023/08/15 10:40:36;;;;;;;6.18;1.15;;;25.80;74.70;;;;;;5034148;28;20440;-73
2023/08/15 10:43:03;;;;;;;1.77;0.90;;;;;;;;;;5034443;28;20029;-71
2023/08/15 10:45:35;;;;;;;3.55;1.40;;;25.80;68.90;;;;;;5033745;28;20106;-72
2023/08/15 10:48:02;;;;;;;2.47;1.00;;;;;;;;;;5033837;28;20094;-72
2023/08/15 10:50:28;;;;;;;3.55;1.20;;;;;;;;;;5033508;28;20080;-72
2023/08/15 10:53:06;;;;;;;3.50;1.10;;;25.90;69.40;;;;;;5033333;28;20049;-72
2023/08/15 10:55:36;;;;;;;5.07;1.30;;;25.90;69.60;;;;;;5033711;28;20040;-78
2023/08/15 10:58:05;;;;;;;3.60;1.10;;;25.90;75.40;;;;;;5033654;28;20132;-78
2023/08/15 11:00:32;;;;;;;4.17;1.20;;;25.90;73.50;;;;;;5033557;28;20161;-77
2023/08/15 11:02:59;;;;;;;1.52;0.80;;;;;;;;;;5032979;28;20053;-78
2023/08/15 11:05:40;;;;;;;4.78;1.30;;;26.00;69.30;;;;;;5033235;28;20030;-78
2023/08/15 11:08:17;;;;;;;2.75;1.17;;;26.00;69.20;;;;;;5033074;28;20061;-78
2023/08/15 11:10:48;;;;;;;1.92;0.70;;;26.10;75.10;;;;;;5033232;28;20091;-78
2023/08/15 11:13:18;;;;;;;3.80;1.17;;;26.20;75.10;;;;;;5033323;28;20045;-79
2023/08/15 11:15:45;;;;;;;2.28;0.80;;;26.30;71.20;;;;;;5033489;28;20029;-77
2023/08/15 11:18:24;;;;;;;2.53;1.05;;;26.30;74.40;;;;;;5033250;28;20441;-77
2023/08/15 11:20:51;;;;;;;4.10;1.60;;;26.50;74.20;;;;;;5032940;28;20484;-77
2023/08/15 11:23:20;;;;;;;1.80;0.90;;;;;;;;;;5032874;28;20038;-78
2023/08/15 11:25:47;;;;;;;1.05;0.70;;;;;;;;;;5032899;28;20483;-77
2023/08/15 11:28:13;;;;;;;1.17;0.57;;;;;;;;;;5033005;28;20109;-75
2023/08/15 11:30:39;;;;;;;1.30;0.80;;;;;;;;;;5032944;28;20034;-74
2023/08/15 11:33:05;;;;;;;2.45;0.68;;;;;;;;;;5033047;28;20121;-71
2023/08/15 11:35:31;;;;;;;1.58;0.60;;;;;;;;;;5032551;28;20399;-73
2023/08/15 11:37:59;;;;;;;1.90;0.60;;;27.30;72.80;;;;;;5032156;28;20391;-71
2023/08/15 11:40:26;;;;;;;1.60;0.70;;;;;;;;;;5032320;28;20059;-72
2023/08/15 11:42:53;;;;;;;1.42;0.65;;;27.40;72.30;;;;;;5032346;28;20033;-72
2023/08/15 11:45:22;;;;;;;1.23;0.50;;;27.40;71.80;;;;;;5032256;28;20113;-72
2023/08/15 11:48:08;;;;;;;0.67;0.60;;;27.60;72.30;;;;;;5014460;28;20041;-72
2023/08/15 11:50:35;;;;;;;0.98;0.60;;;;;;;;;;5032510;28;20424;-76
2023/08/15 11:53:01;;;;;;;3.17;0.63;;;;;;;;;;5032335;28;20081;-76
2023/08/15 11:55:33;;;;;;;2.28;0.43;;;27.40;71.50;;;;;;5032727;28;20451;-76
2023/08/15 11:57:59;;;;;;;0.98;0.40;;;;;;;;;;5032697;28;20108;-77
2023/08/15 12:00:27;;;;;;;0.70;0.50;;;27.70;71.80;;;;;;5031523;28;20037;-77
2023/08/15 12:02:54;;;;;;;0.88;0.55;;;25.90;67.30;;;;;;5032079;28;20049;-77
2023/08/15 12:05:21;;;;;;;0.88;0.35;;;;;;;;;;5032428;28;20416;-77
2023/08/15 12:07:49;;;;;;;0.77;0.38;;;27.80;71.70;;;;;;5032249;28;20040;-73
2023/08/15 12:10:16;;;;;;;2.17;0.40;;;27.80;72.00;;;;;;5031905;28;20484;-73
2023/08/15 12:12:44;;;;;;;0.70;0.45;;;27.80;71.60;;;;;;5031865;28;20040;-73
2023/08/15 12:15:13;;;;;;;0.47;0.40;;;27.70;71.40;;;;;;5031872;28;20038;-73
2023/08/15 12:17:40;;;;;;;0.40;0.40;;;;;;;;;;5031924;28;20030;-73
2023/08/15 12:20:09;;;;;;;0.30;0.30;;;28.10;71.50;;;;;;5032096;28;20025;-74
2023/08/15 12:22:37;;;;;;;0.70;0.40;;;;;;;;;;5031851;28;20112;-74
2023/08/15 12:25:04;;;;;;;0.60;0.40;;;;;;;;;;5032045;28;20262;-73
2023/08/15 12:27:31;;;;;;;0.70;0.40;;;;;;;;;;5032131;28;20068;-77
2023/08/15 12:29:58;;;;;;;0.77;0.73;;;28.30;65.60;;;;;;5032183;28;20109;-77
2023/08/15 12:32:25;;;;;;;0.93;0.30;;;;;;;;;;5032278;28;20048;-76
2023/08/15 12:34:51;;;;;;;0.82;0.43;;;;;;;;;;5031769;28;20048;-76
2023/08/15 12:37:18;;;;;;;1.48;0.63;;;;;;;;;;5031995;28;20038;-78
2023/08/15 12:39:44;;;;;;;1.23;0.50;;;;;;;;;;5031762;28;20049;-77
2023/08/15 12:42:12;;;;;;;0.50;0.40;;;28.60;69.60;;;;;;5032111;28;20041;-77
2023/08/15 12:44:38;;;;;;;3.30;0.52;;;;;;;;;;5031899;28;20025;-76
2023/08/15 12:47:05;;;;;;;0.50;0.40;;;;;;;;;;5031930;28;20042;-77
2023/08/15 12:49:31;;;;;;;0.60;0.30;;;;;;;;;;5031176;28;20033;-77
2023/08/15 12:51:58;;;;;;;2.88;0.50;;;;;;;;;;5031645;28;20065;-77
2023/08/15 12:54:24;;;;;;;1.05;0.50;;;;;;;;;;5031557;28;20385;-76
2023/08/15 12:56:51;;;;;;;0.63;0.40;;;;;;;;;;5032015;28;20403;-77
2023/08/15 12:59:17;;;;;;;1.52;0.80;;;;;;;;;;5032038;28;20037;-76
2023/08/15 13:01:44;;;;;;;1.80;0.40;;;;;;;;;;5032171;28;20451;-77
2023/08/15 13:04:12;;;;;;;0.55;0.45;;;;;;;;;;5031639;28;20544;-77
2023/08/15 13:06:39;;;;;;;0.60;0.40;;;;;;;;;;5013888;28;20037;-75
2023/08/15 13:09:07;;;;;;;0.32;0.32;;;;;;;;;;5031943;28;20087;-77
2023/08/15 13:11:37;;;;;;;1.40;0.50;;;29.30;69.20;;;;;;5031810;28;20048;-76
2023/08/15 13:14:04;;;;;;;0.85;0.50;;;;;;;;;;5031315;28;20504;-72
2023/08/15 13:16:32;;;;;;;0.50;0.40;;;29.30;66.30;;;;;;5031521;28;20034;-74
2023/08/15 13:18:58;;;;;;;0.98;0.40;;;;;;;;;;5031178;28;20428;-72
2023/08/15 13:21:26;;;;;;;1.00;0.38;;;29.00;67.80;;;;;;5031011;28;20045;-71
2023/08/15 13:23:53;;;;;;;1.58;0.60;;;;;;;;;;5031286;28;20173;-72
2023/08/15 13:26:20;;;;;;;1.23;0.50;;;;;;;;;;5031449;28;20038;-72
2023/08/15 13:28:47;;;;;;;0.50;0.30;;;;;;;;;;5031199;28;20452;-74
2023/08/15 13:31:13;;;;;;;0.85;0.40;;;;;;;;;;5031086;28;20048;-72
2023/08/15 13:33:40;;;;;;;1.98;0.73;;;;;;;;;;5031407;28;20045;-75
2023/08/15 13:36:07;;;;;;;0.77;0.50;;;;;;;;;;5031192;28;20038;-75
2023/08/15 13:38:34;;;;;;;1.27;0.35;;;;;;;;;;5030986;28;20137;-75
2023/08/15 13:41:01;;;;;;;0.95;0.35;;;29.50;62.70;;;;;;5031408;28;20377;-77
2023/08/15 13:43:28;;;;;;;1.70;0.38;;;;;;;;;;5031148;28;20033;-77
2023/08/15 13:46:00;;;;;;;1.42;0.65;;;29.20;68.80;;;;;;5030877;28;20492;-77
2023/08/15 13:48:27;;;;;;;1.38;0.45;;;;;;;;;;5031312;28;20055;-77
2023/08/15 13:50:53;;;;;;;2.20;0.50;;;;;;;;;;5031114;28;20109;-77
2023/08/15 13:53:22;;;;;;;1.65;0.60;;;29.00;65.10;;;;;;5031275;28;20173;-77
2023/08/15 13:55:48;;;;;;;0.35;0.30;;;;;;;;;;5030875;28;20525;-77
2023/08/15 13:58:15;;;;;;;0.73;0.50;;;;;;;;;;5031271;28;20049;-77
2023/08/15 14:00:41;;;;;;;1.17;0.60;;;;;;;;;;5030916;28;20044;-77
2023/08/15 14:03:08;;;;;;;0.93;0.52;;;;;;;;;;5034134;28;20058;-77
2023/08/15 14:05:35;;;;;;;0.82;0.40;;;;;;;;;;5034542;28;20124;-77
2023/08/15 14:08:02;;;;;;;1.58;0.40;;;;;;;;;;5035019;28;20148;-77
2023/08/15 14:10:29;;;;;;;0.73;0.30;;;;;;;;;;5034982;28;20033;-76